La Grange, North Carolina
Current Conditions -  °F | °C
As of 12:56 PM on Thursday 30 Oct 2014 (Local Time) from KISO Reporting Station
Clear Clear  
Wind Chill: 66°   Ceiling: Unl
Heat Index: 66°   Visibility: 10mi
Dew Point: 48°   Wind: 9mph
Humidity: 52%   Direction: 10°N
Pressure: 30.02"   Gusts: NA
Location:  35.31°N, 77.79°W
Report Text: KISO 301656Z AUTO 01008KT 10SM CLR 19/09 A3002 RMK AO2
Loading
Personal Weather Stations






























Interactive Weather Map
Tropical Storm Tracking
New forecast layout! Learn more

10-Day Weather Forecast

Advertisements
Track Severe Weather on mobile